createdAt,value
2023-03-29T00:00:41.647Z,2.27
2023-03-29T00:03:10.239Z,2.50
2023-03-29T00:05:41.152Z,2.40
2023-03-29T00:08:14.465Z,2.30
2023-03-29T00:10:43.414Z,2.10
2023-03-29T00:13:11.841Z,2.27
2023-03-29T00:15:40.313Z,2.67
2023-03-29T00:18:08.832Z,2.40
2023-03-29T00:20:37.348Z,2.30
2023-03-29T00:23:05.729Z,2.57
2023-03-29T00:25:35.507Z,2.43
2023-03-29T00:28:04.139Z,3.07
2023-03-29T00:30:32.591Z,2.70
2023-03-29T00:33:01.085Z,2.83
2023-03-29T00:35:29.677Z,2.90
2023-03-29T00:37:58.125Z,2.77
2023-03-29T00:40:26.734Z,2.50
2023-03-29T00:42:58.123Z,2.87
2023-03-29T00:45:30.477Z,2.57
2023-03-29T00:48:02.363Z,2.30
2023-03-29T00:50:33.025Z,2.50
2023-03-29T00:53:06.100Z,2.10
2023-03-29T00:55:37.513Z,2.30
2023-03-29T00:58:09.954Z,2.03
2023-03-29T01:00:42.175Z,2.40
2023-03-29T01:03:14.411Z,2.10
2023-03-29T01:05:46.573Z,2.30
2023-03-29T01:08:19.159Z,2.20
2023-03-29T01:10:52.328Z,1.97
2023-03-29T01:13:26.262Z,2.40
2023-03-29T01:15:55.668Z,2.00
2023-03-29T01:18:24.488Z,2.40
2023-03-29T01:21:12.609Z,2.27
2023-03-29T01:23:58.340Z,2.13
2023-03-29T01:26:32.582Z,2.47
2023-03-29T01:29:06.080Z,2.20
2023-03-29T01:31:37.063Z,2.30
2023-03-29T01:34:08.882Z,1.90
2023-03-29T01:36:39.856Z,2.10
2023-03-29T01:39:08.606Z,2.20
2023-03-29T01:41:49.020Z,2.00
2023-03-29T01:44:22.028Z,2.20
2023-03-29T01:46:54.631Z,2.20
2023-03-29T01:49:27.211Z,2.00
2023-03-29T01:51:59.773Z,2.20
2023-03-29T01:54:31.998Z,2.43
2023-03-29T01:57:03.198Z,2.17
2023-03-29T01:59:35.561Z,1.93
2023-03-29T02:02:05.986Z,1.93
2023-03-29T02:04:37.214Z,2.10
2023-03-29T02:07:08.697Z,2.03
2023-03-29T02:09:38.321Z,2.00
2023-03-29T02:12:08.365Z,1.90
2023-03-29T02:14:38.937Z,1.73
2023-03-29T02:17:20.853Z,2.10
2023-03-29T02:19:51.684Z,2.20
2023-03-29T02:22:24.859Z,1.90
2023-03-29T02:24:56.629Z,2.03
2023-03-29T02:27:25.121Z,1.97
2023-03-29T02:29:55.106Z,2.10
2023-03-29T02:32:28.448Z,2.10
2023-03-29T02:35:00.355Z,2.20
2023-03-29T02:37:31.234Z,2.20
2023-03-29T02:40:00.663Z,2.53
2023-03-29T02:42:30.061Z,2.40
2023-03-29T02:45:00.588Z,2.40
2023-03-29T02:47:32.494Z,2.30
2023-03-29T02:50:01.136Z,2.43
2023-03-29T02:52:34.924Z,2.27
2023-03-29T02:55:04.198Z,2.70
2023-03-29T02:57:32.688Z,2.30
2023-03-29T03:00:06.970Z,2.20
2023-03-29T03:02:35.581Z,2.03
2023-03-29T03:05:04.258Z,2.20
2023-03-29T03:07:33.755Z,2.50
2023-03-29T03:10:03.893Z,2.00
2023-03-29T03:12:32.344Z,2.30
2023-03-29T03:15:02.588Z,2.20
2023-03-29T03:17:33.194Z,2.80
2023-03-29T03:20:01.633Z,2.50
2023-03-29T03:22:30.357Z,2.67
2023-03-29T03:24:58.765Z,2.50
2023-03-29T03:27:27.264Z,2.70
2023-03-29T03:29:55.746Z,2.40
2023-03-29T03:32:25.680Z,2.23
2023-03-29T03:34:54.132Z,2.43
2023-03-29T03:37:22.564Z,2.60
2023-03-29T03:39:50.985Z,2.50
2023-03-29T03:42:19.391Z,2.70
2023-03-29T03:44:47.780Z,2.80
2023-03-29T03:47:16.280Z,2.40
2023-03-29T03:49:46.077Z,8.27
2023-03-29T03:52:14.747Z,14.03
2023-03-29T03:54:43.181Z,4.80
2023-03-29T03:57:11.648Z,2.90
2023-03-29T03:59:40.143Z,2.70
2023-03-29T04:02:08.739Z,2.50
2023-03-29T04:04:37.275Z,2.40
2023-03-29T04:07:07.165Z,2.50
2023-03-29T04:09:36.275Z,2.40
2023-03-29T04:12:05.128Z,2.40
2023-03-29T04:14:33.773Z,2.33
2023-03-29T04:17:05.731Z,2.67
2023-03-29T04:19:34.262Z,2.60
2023-03-29T04:22:02.718Z,2.43
2023-03-29T04:24:32.600Z,2.40
2023-03-29T04:27:01.140Z,2.90
2023-03-29T04:29:30.097Z,3.20
2023-03-29T04:31:58.612Z,3.40
2023-03-29T04:34:27.052Z,9.87
2023-03-29T04:36:55.589Z,9.73
2023-03-29T04:39:33.956Z,5.27
2023-03-29T04:42:04.197Z,3.07
2023-03-29T04:44:33.584Z,2.83
2023-03-29T04:47:02.551Z,3.37
2023-03-29T04:49:31.213Z,4.67
2023-03-29T04:52:00.861Z,4.00
2023-03-29T04:54:29.372Z,3.17
2023-03-29T04:56:57.959Z,3.10
2023-03-29T04:59:27.779Z,2.60
2023-03-29T05:01:56.551Z,2.97
2023-03-29T05:04:25.144Z,4.57
2023-03-29T05:06:53.986Z,6.33
2023-03-29T05:09:22.538Z,7.50
2023-03-29T05:11:51.419Z,3.87
2023-03-29T05:14:19.920Z,3.10
2023-03-29T05:16:49.752Z,3.00
2023-03-29T05:19:21.778Z,25.93
2023-03-29T05:21:51.100Z,28.53
2023-03-29T05:24:19.995Z,6.17
2023-03-29T05:26:51.738Z,2.80
2023-03-29T05:29:20.418Z,2.63
2023-03-29T05:31:50.433Z,15.70
2023-03-29T05:34:18.968Z,12.73
2023-03-29T05:36:49.069Z,3.93
2023-03-29T05:39:17.631Z,3.27
2023-03-29T05:41:46.557Z,4.37
2023-03-29T05:44:15.071Z,15.53
2023-03-29T05:46:43.499Z,9.00
2023-03-29T05:49:13.422Z,8.17
2023-03-29T05:51:42.109Z,7.63
2023-03-29T05:54:10.582Z,6.77
2023-03-29T05:56:39.727Z,5.93
2023-03-29T05:59:09.170Z,5.00
2023-03-29T06:01:40.118Z,6.70
2023-03-29T06:04:08.719Z,14.53
2023-03-29T06:06:38.653Z,9.37
2023-03-29T06:09:07.151Z,4.33
2023-03-29T06:11:35.562Z,4.27
2023-03-29T06:14:04.616Z,4.20
2023-03-29T06:16:33.542Z,5.13
2023-03-29T06:19:02.018Z,4.70
2023-03-29T06:21:31.569Z,3.60
2023-03-29T06:24:01.618Z,3.67
2023-03-29T06:26:30.625Z,9.83
2023-03-29T06:28:59.125Z,5.17
2023-03-29T06:31:27.883Z,4.70
2023-03-29T06:33:57.685Z,8.97
2023-03-29T06:36:26.587Z,4.70
2023-03-29T06:38:55.391Z,3.60
2023-03-29T06:41:25.236Z,4.53
2023-03-29T06:43:54.837Z,3.93
2023-03-29T06:46:23.343Z,4.57
2023-03-29T06:48:51.889Z,4.07
2023-03-29T06:51:23.123Z,4.00
2023-03-29T06:53:51.823Z,4.73
2023-03-29T06:56:20.730Z,4.33
2023-03-29T06:58:51.541Z,4.30
2023-03-29T07:01:20.457Z,3.87
2023-03-29T07:03:49.357Z,4.37
2023-03-29T07:06:20.432Z,3.90
2023-03-29T07:08:52.450Z,4.17
2023-03-29T07:11:21.245Z,4.70
2023-03-29T07:13:51.081Z,4.73
2023-03-29T07:16:19.653Z,5.80
2023-03-29T07:18:48.183Z,14.17
2023-03-29T07:21:16.585Z,5.47
2023-03-29T07:23:45.030Z,5.20
2023-03-29T07:26:14.408Z,4.93
2023-03-29T07:28:58.821Z,4.97
2023-03-29T07:31:28.518Z,4.83
2023-03-29T07:33:57.183Z,6.10
2023-03-29T07:36:28.549Z,6.20
2023-03-29T07:38:57.920Z,6.10
2023-03-29T07:41:26.460Z,5.10
2023-03-29T07:43:55.849Z,5.00
2023-03-29T07:46:26.180Z,4.53
2023-03-29T07:48:56.719Z,4.17
2023-03-29T07:51:25.189Z,3.83
2023-03-29T07:53:53.612Z,3.50
2023-03-29T07:56:22.259Z,5.23
2023-03-29T07:58:50.716Z,4.17
2023-03-29T08:01:19.814Z,4.27
2023-03-29T08:03:49.970Z,4.60
2023-03-29T08:06:18.524Z,4.27
2023-03-29T08:08:47.093Z,5.23
2023-03-29T08:11:15.627Z,4.40
2023-03-29T08:13:44.057Z,4.37
2023-03-29T08:16:12.503Z,4.10
2023-03-29T08:18:41.120Z,3.70
2023-03-29T08:21:11.063Z,3.80
2023-03-29T08:23:39.501Z,3.17
2023-03-29T08:26:09.348Z,2.30
2023-03-29T08:28:38.131Z,3.03
2023-03-29T08:31:09.833Z,2.60
2023-03-29T08:33:38.357Z,2.97
2023-03-29T08:36:07.345Z,12.70
2023-03-29T08:38:37.216Z,3.97
2023-03-29T08:41:13.877Z,3.30
2023-03-29T08:43:53.889Z,2.80
2023-03-29T08:46:34.481Z,2.87
2023-03-29T08:49:06.174Z,3.60
2023-03-29T08:51:38.187Z,3.17
2023-03-29T08:54:11.480Z,3.47
2023-03-29T08:56:40.704Z,3.40
2023-03-29T08:59:19.554Z,3.33
2023-03-29T09:01:50.626Z,3.60
2023-03-29T09:04:21.782Z,5.70
2023-03-29T09:06:50.303Z,6.37
2023-03-29T09:09:22.647Z,3.80
2023-03-29T09:12:00.273Z,3.60
2023-03-29T09:14:49.487Z,3.50
2023-03-29T09:17:37.028Z,3.00
2023-03-29T09:20:15.382Z,2.83
2023-03-29T09:22:49.307Z,2.93
2023-03-29T09:25:24.212Z,3.00
2023-03-29T09:28:01.156Z,2.90
2023-03-29T09:30:31.746Z,3.40
2023-03-29T09:33:02.245Z,2.90
2023-03-29T09:35:33.219Z,2.77
2023-03-29T09:38:02.193Z,2.97
2023-03-29T09:40:35.373Z,5.13
2023-03-29T09:43:04.650Z,6.13
2023-03-29T09:45:33.432Z,4.30
2023-03-29T09:48:07.941Z,3.00
2023-03-29T09:50:39.202Z,2.57
2023-03-29T09:53:08.827Z,2.13
2023-03-29T09:55:40.831Z,2.47
2023-03-29T09:58:14.773Z,2.03
2023-03-29T10:00:44.849Z,2.53
2023-03-29T10:03:19.778Z,2.13
2023-03-29T10:05:48.572Z,1.93
2023-03-29T10:08:22.401Z,2.03
2023-03-29T10:10:52.601Z,2.20
2023-03-29T10:13:23.796Z,2.13
2023-03-29T10:16:18.425Z,2.13
2023-03-29T10:18:47.404Z,1.97
2023-03-29T10:21:17.220Z,2.07
2023-03-29T10:23:46.076Z,2.20
2023-03-29T10:26:22.860Z,2.00
2023-03-29T10:28:54.757Z,2.20
2023-03-29T10:31:24.062Z,2.23
2023-03-29T10:33:54.201Z,2.50
2023-03-29T10:36:23.441Z,2.03
2023-03-29T10:38:52.723Z,2.23
2023-03-29T10:41:23.086Z,2.97
2023-03-29T10:43:52.262Z,2.70
2023-03-29T10:46:23.124Z,2.30
2023-03-29T10:48:53.525Z,2.30
2023-03-29T10:51:22.029Z,2.73
2023-03-29T10:53:50.816Z,2.17
2023-03-29T10:56:34.083Z,2.10
2023-03-29T10:59:17.773Z,2.30
2023-03-29T11:02:09.884Z,2.23
2023-03-29T11:04:41.169Z,2.20
2023-03-29T11:07:23.725Z,2.13
2023-03-29T11:10:00.899Z,1.87
2023-03-29T11:12:35.999Z,2.00
2023-03-29T11:15:24.442Z,2.47
2023-03-29T11:18:03.170Z,2.13
2023-03-29T11:20:38.208Z,1.93
2023-03-29T11:23:18.150Z,2.17
2023-03-29T11:25:53.802Z,2.20
2023-03-29T11:28:31.357Z,2.03
2023-03-29T11:31:05.580Z,2.07
2023-03-29T11:33:41.921Z,2.57
2023-03-29T11:36:16.636Z,1.80
2023-03-29T11:38:53.856Z,2.00
2023-03-29T11:41:25.360Z,2.17
2023-03-29T11:43:58.690Z,2.00
2023-03-29T11:46:29.704Z,2.00
2023-03-29T11:49:04.434Z,2.00
2023-03-29T11:51:35.377Z,2.20
2023-03-29T11:54:07.660Z,2.07
2023-03-29T11:56:40.831Z,2.10
2023-03-29T11:59:15.979Z,2.43
2023-03-29T12:01:48.119Z,2.00
2023-03-29T12:04:22.935Z,2.30
2023-03-29T12:06:55.633Z,2.40
2023-03-29T12:09:28.975Z,2.17
2023-03-29T12:12:03.068Z,2.13
2023-03-29T12:14:44.655Z,2.43
2023-03-29T12:17:16.436Z,2.27
2023-03-29T12:19:50.463Z,2.30
2023-03-29T12:22:19.038Z,2.00
2023-03-29T12:24:48.941Z,2.20
2023-03-29T12:27:24.119Z,2.03
2023-03-29T12:30:23.985Z,2.40
2023-03-29T12:33:15.780Z,3.50
2023-03-29T12:35:53.307Z,2.30
2023-03-29T12:38:22.938Z,2.33
2023-03-29T12:40:56.306Z,2.40
2023-03-29T12:43:27.151Z,1.87
2023-03-29T12:46:09.507Z,2.10
2023-03-29T12:48:39.942Z,2.20
2023-03-29T12:51:12.834Z,1.90
2023-03-29T12:53:42.928Z,1.80
2023-03-29T12:56:15.354Z,1.83
2023-03-29T12:58:52.961Z,2.00
2023-03-29T13:01:31.289Z,1.97
2023-03-29T13:04:35.417Z,2.00
2023-03-29T13:07:04.577Z,2.10
2023-03-29T13:09:37.801Z,3.20
2023-03-29T13:12:09.296Z,2.27
2023-03-29T13:14:42.680Z,2.10
2023-03-29T13:17:22.824Z,3.20
2023-03-29T13:20:09.297Z,2.30
2023-03-29T13:22:45.868Z,2.10
2023-03-29T13:25:33.387Z,2.50
2023-03-29T13:28:06.834Z,2.30
2023-03-29T13:30:44.116Z,2.00
2023-03-29T13:33:31.596Z,2.30
2023-03-29T13:36:04.726Z,3.50
2023-03-29T13:38:35.434Z,2.20
2023-03-29T13:41:06.023Z,2.33
2023-03-29T13:43:37.663Z,2.00
2023-03-29T13:46:24.585Z,2.10
2023-03-29T13:49:06.941Z,2.07
2023-03-29T13:51:40.080Z,7.20
2023-03-29T13:54:18.550Z,2.70
2023-03-29T13:56:57.948Z,2.87
2023-03-29T13:59:33.152Z,2.13
2023-03-29T14:02:03.589Z,2.73
2023-03-29T14:04:38.036Z,2.13
2023-03-29T14:07:08.188Z,2.30
2023-03-29T14:09:41.311Z,2.40
2023-03-29T14:12:12.059Z,2.10
2023-03-29T14:14:48.361Z,2.33
2023-03-29T14:17:26.668Z,2.20
2023-03-29T14:19:58.911Z,2.20
2023-03-29T14:22:31.798Z,2.43
2023-03-29T14:25:04.681Z,2.53
2023-03-29T14:27:33.796Z,3.60
2023-03-29T14:30:02.290Z,2.90
2023-03-29T14:32:32.590Z,2.50
2023-03-29T14:35:02.689Z,2.40
2023-03-29T14:37:31.512Z,2.13
2023-03-29T14:40:00.285Z,2.20
2023-03-29T14:42:29.955Z,2.33
2023-03-29T14:44:59.930Z,3.60
2023-03-29T14:47:30.988Z,6.10
2023-03-29T14:50:00.937Z,4.20
2023-03-29T14:52:31.656Z,2.70
2023-03-29T14:55:01.909Z,3.07
2023-03-29T14:57:35.200Z,3.07
2023-03-29T15:00:14.005Z,2.67
2023-03-29T15:02:50.174Z,2.70
2023-03-29T15:05:31.689Z,2.50
2023-03-29T15:08:02.005Z,2.47
2023-03-29T15:10:33.112Z,2.80
2023-03-29T15:13:03.289Z,2.20
2023-03-29T15:15:33.365Z,2.40
2023-03-29T15:18:02.827Z,3.00
2023-03-29T15:20:35.161Z,3.20
2023-03-29T15:23:10.323Z,3.43
2023-03-29T15:25:43.317Z,3.90
2023-03-29T15:28:26.104Z,4.03
2023-03-29T15:31:07.191Z,8.83
2023-03-29T15:33:38.023Z,5.10
2023-03-29T15:36:08.358Z,4.50
2023-03-29T15:38:43.919Z,3.60
2023-03-29T15:41:15.448Z,3.70
2023-03-29T15:43:44.077Z,3.70
2023-03-29T15:46:14.025Z,3.67
2023-03-29T15:48:42.624Z,3.60
2023-03-29T15:51:12.467Z,3.60
2023-03-29T15:53:42.611Z,3.70
2023-03-29T15:56:14.320Z,3.57
2023-03-29T15:58:42.714Z,3.90
2023-03-29T16:01:19.299Z,4.40
2023-03-29T16:03:48.267Z,4.70
2023-03-29T16:06:17.536Z,4.57
2023-03-29T16:08:47.416Z,4.20
2023-03-29T16:11:16.071Z,4.10
2023-03-29T16:13:44.545Z,4.00
2023-03-29T16:16:13.179Z,3.80
2023-03-29T16:18:41.717Z,4.80
2023-03-29T16:21:12.811Z,5.43
2023-03-29T16:23:41.716Z,5.10
2023-03-29T16:26:13.399Z,4.77
2023-03-29T16:28:42.493Z,4.40
2023-03-29T16:31:12.619Z,4.03
2023-03-29T16:33:41.481Z,4.20
2023-03-29T16:36:10.597Z,4.70
2023-03-29T16:38:39.196Z,4.40
2023-03-29T16:41:08.660Z,4.10
2023-03-29T16:43:38.783Z,4.20
2023-03-29T16:46:08.928Z,4.93
2023-03-29T16:48:37.831Z,4.97
2023-03-29T16:51:07.233Z,4.47
2023-03-29T16:53:36.097Z,5.10
2023-03-29T16:56:05.211Z,5.83
2023-03-29T16:58:33.972Z,5.20
2023-03-29T17:01:10.885Z,5.80
2023-03-29T17:03:39.528Z,5.17
2023-03-29T17:06:09.906Z,4.87
2023-03-29T17:08:39.174Z,5.07
2023-03-29T17:11:07.884Z,5.40
2023-03-29T17:13:37.467Z,5.10
2023-03-29T17:16:06.847Z,10.73
2023-03-29T17:18:37.771Z,9.60
2023-03-29T17:21:07.217Z,6.00
2023-03-29T17:23:35.788Z,5.23
2023-03-29T17:26:04.441Z,8.10
2023-03-29T17:28:33.134Z,7.90
2023-03-29T17:31:07.084Z,8.47
2023-03-29T17:33:37.615Z,6.70
2023-03-29T17:36:07.581Z,5.00
2023-03-29T17:38:38.237Z,4.53
2023-03-29T17:41:08.305Z,4.47
2023-03-29T17:43:36.877Z,4.77
2023-03-29T17:46:05.673Z,4.20
2023-03-29T17:48:35.878Z,4.57
2023-03-29T17:51:04.457Z,4.37
2023-03-29T17:53:32.867Z,5.23
2023-03-29T17:56:01.462Z,7.50
2023-03-29T17:58:30.484Z,7.23
2023-03-29T18:00:58.911Z,6.50
2023-03-29T18:03:27.448Z,8.17
2023-03-29T18:05:57.448Z,7.10
2023-03-29T18:08:25.963Z,6.90
2023-03-29T18:10:54.432Z,8.30
2023-03-29T18:13:25.485Z,7.70
2023-03-29T18:15:56.734Z,14.27
2023-03-29T18:18:25.698Z,13.27
2023-03-29T18:20:54.108Z,7.00
2023-03-29T18:23:23.939Z,6.70
2023-03-29T18:25:52.405Z,6.30
2023-03-29T18:28:21.579Z,5.80
2023-03-29T18:30:52.366Z,6.60
2023-03-29T18:33:20.902Z,7.83
2023-03-29T18:35:50.555Z,7.47
2023-03-29T18:38:20.053Z,9.37
2023-03-29T18:40:50.195Z,10.87
2023-03-29T18:43:19.116Z,10.73
2023-03-29T18:45:48.467Z,10.87
2023-03-29T18:48:16.977Z,8.73
2023-03-29T18:50:46.456Z,7.20
2023-03-29T18:53:15.063Z,9.43
2023-03-29T18:55:44.077Z,7.57
2023-03-29T18:58:14.709Z,13.67
2023-03-29T19:00:43.776Z,9.10
2023-03-29T19:03:12.276Z,7.23
2023-03-29T19:05:40.999Z,6.50
2023-03-29T19:08:10.116Z,6.43
2023-03-29T19:10:39.477Z,6.30
2023-03-29T19:13:07.919Z,6.63
2023-03-29T19:15:39.963Z,5.73
2023-03-29T19:18:08.766Z,7.30
2023-03-29T19:20:37.641Z,11.90
2023-03-29T19:23:06.308Z,13.27
2023-03-29T19:25:35.426Z,13.53
2023-03-29T19:28:04.927Z,14.40
2023-03-29T19:30:33.401Z,13.27
2023-03-29T19:33:03.300Z,10.10
2023-03-29T19:35:31.923Z,9.57
2023-03-29T19:38:00.858Z,10.10
2023-03-29T19:40:29.401Z,12.40
2023-03-29T19:42:57.843Z,12.67
2023-03-29T19:45:27.824Z,13.77
2023-03-29T19:47:57.563Z,18.83
2023-03-29T19:50:27.766Z,20.73
2023-03-29T19:52:57.147Z,11.90
2023-03-29T19:55:25.989Z,7.73
2023-03-29T19:57:54.498Z,6.33
2023-03-29T20:00:25.047Z,6.43
2023-03-29T20:02:55.584Z,59.97
2023-03-29T20:05:24.138Z,53.17
2023-03-29T20:07:54.410Z,45.63
2023-03-29T20:10:22.934Z,40.87
2023-03-29T20:12:51.548Z,30.20
2023-03-29T20:15:20.157Z,12.83
2023-03-29T20:17:48.614Z,8.30
2023-03-29T20:20:17.253Z,6.90
2023-03-29T20:22:46.144Z,7.87
2023-03-29T20:25:16.078Z,8.37
2023-03-29T20:27:45.372Z,11.47
2023-03-29T20:30:14.425Z,13.70
2023-03-29T20:32:42.994Z,16.97
2023-03-29T20:35:12.856Z,12.07
2023-03-29T20:37:41.323Z,10.37
2023-03-29T20:40:11.334Z,10.90
2023-03-29T20:42:41.194Z,9.73
2023-03-29T20:45:18.657Z,10.20
2023-03-29T20:47:50.523Z,10.43
2023-03-29T20:50:20.069Z,7.80
2023-03-29T20:52:48.570Z,6.97
2023-03-29T20:55:22.286Z,5.83
2023-03-29T20:57:54.032Z,6.93
2023-03-29T21:00:24.570Z,27.97
2023-03-29T21:02:55.074Z,16.90
2023-03-29T21:05:23.837Z,8.80
2023-03-29T21:07:54.576Z,6.37
2023-03-29T21:10:24.292Z,5.47
2023-03-29T21:12:59.984Z,6.00
2023-03-29T21:15:30.466Z,5.60
2023-03-29T21:17:59.398Z,6.13
2023-03-29T21:20:28.640Z,6.57
2023-03-29T21:22:57.118Z,6.20
2023-03-29T21:25:25.544Z,6.10
2023-03-29T21:27:55.355Z,6.60
2023-03-29T21:30:23.825Z,7.43
2023-03-29T21:32:52.356Z,7.63
2023-03-29T21:35:21.249Z,11.33
2023-03-29T21:37:49.785Z,11.60
2023-03-29T21:40:18.365Z,8.33
2023-03-29T21:42:46.864Z,7.60
2023-03-29T21:45:16.890Z,5.97
2023-03-29T21:47:45.506Z,5.67
2023-03-29T21:50:13.984Z,5.20
2023-03-29T21:52:42.423Z,5.40
2023-03-29T21:55:11.051Z,5.73
2023-03-29T21:57:39.535Z,5.53
2023-03-29T22:00:11.356Z,6.03
2023-03-29T22:02:41.694Z,5.30
2023-03-29T22:05:10.671Z,5.47
2023-03-29T22:07:45.570Z,5.77
2023-03-29T22:10:15.659Z,6.00
2023-03-29T22:12:44.305Z,6.10
2023-03-29T22:15:13.159Z,6.27
2023-03-29T22:17:43.393Z,5.97
2023-03-29T22:20:13.863Z,6.40
2023-03-29T22:22:45.680Z,5.87
2023-03-29T22:25:14.349Z,5.83
2023-03-29T22:27:44.241Z,6.27
2023-03-29T22:30:13.822Z,5.50
2023-03-29T22:32:43.782Z,5.80
2023-03-29T22:35:12.508Z,5.07
2023-03-29T22:37:44.634Z,5.43
2023-03-29T22:40:14.108Z,4.93
2023-03-29T22:42:42.590Z,5.60
2023-03-29T22:45:11.734Z,5.63
2023-03-29T22:47:40.345Z,6.37
2023-03-29T22:50:11.282Z,6.33
2023-03-29T22:52:39.706Z,6.00
2023-03-29T22:55:08.775Z,6.30
2023-03-29T22:57:37.178Z,6.23
2023-03-29T23:00:08.909Z,5.87
2023-03-29T23:02:38.040Z,6.27
2023-03-29T23:05:07.725Z,6.70
2023-03-29T23:07:37.639Z,6.03
2023-03-29T23:10:07.182Z,5.80
2023-03-29T23:12:36.689Z,5.43
2023-03-29T23:15:06.332Z,5.77
2023-03-29T23:17:34.986Z,6.30
2023-03-29T23:20:05.947Z,6.10
2023-03-29T23:22:36.330Z,5.50
2023-03-29T23:25:07.585Z,28.60
2023-03-29T23:27:36.028Z,5.97
2023-03-29T23:30:07.533Z,5.23
2023-03-29T23:32:36.048Z,5.33
2023-03-29T23:35:05.267Z,5.00
2023-03-29T23:37:33.933Z,5.30
2023-03-29T23:40:02.422Z,5.07
2023-03-29T23:42:32.381Z,5.00
2023-03-29T23:45:01.961Z,5.87
2023-03-29T23:47:31.267Z,5.70
2023-03-29T23:50:02.063Z,5.47
2023-03-29T23:52:32.606Z,6.53
2023-03-29T23:55:01.088Z,6.10
2023-03-29T23:57:29.822Z,5.30
